Recent Observations

METAR K14M 231859Z AUTO 18020G24KT 28/09 A2961 RMK A02 P0000
METAR K14M 231900Z AUTO 18024G31KT 28/09 A2962 RMK A02 P0000
METAR K14M 231901Z AUTO 18019G25KT 28/09 A2962 RMK A02 P0000
METAR K14M 231902Z AUTO 18023G30KT 28/10 A2962 RMK A02 P0000
METAR K14M 231903Z AUTO 18023G30KT 28/10 A2962 RMK A02 P0000
METAR K14M 231904Z AUTO 18018G25KT 28/10 A2961 RMK A02 P0000
METAR K14M 231905Z AUTO 18017G21KT 28/10 A2961 RMK A02 P0000
METAR K14M 231906Z AUTO 18023G28KT 28/10 A2961 RMK A02 P0000
METAR K14M 231907Z AUTO 18017G21KT 28/10 A2961 RMK A02 P0000
METAR K14M 231908Z AUTO 21016G20KT 28/09 A2961 RMK A02 P0000
METAR K14M 231909Z AUTO 18017G21KT 28/09 A2961 RMK A02 P0000
METAR K14M 231910Z AUTO 18022G27KT 28/09 A2961 RMK A02 P0000
METAR K14M 231911Z AUTO 18019G23KT 28/09 A2961 RMK A02 P0000
METAR K14M 231912Z AUTO 18021G28KT 27/09 A2961 RMK A02 P0000
METAR K14M 231913Z AUTO 18019G25KT 27/09 A2961 RMK A02 P0000
METAR K14M 231914Z AUTO 18017G21KT 27/09 A2961 RMK A02 P0000
METAR K14M 231915Z AUTO 18015KT 27/08 A2961 RMK A02 P0000
METAR K14M 231916Z AUTO 18017KT 28/08 A2961 RMK A02 P0000
METAR K14M 231917Z AUTO 18017G22KT 28/08 A2961 RMK A02 P0000
METAR K14M 231918Z AUTO 18016G22KT 28/09 A2961 RMK A02 P0000
METAR K14M 231919Z AUTO 18019G24KT 28/09 A2961 RMK A02 P0000
METAR K14M 231920Z AUTO 21021G25KT 28/09 A2961 RMK A02 P0000
METAR K14M 231921Z AUTO 21015G19KT 28/10 A2961 RMK A02 P0000
METAR K14M 231922Z AUTO 18019G28KT 29/10 A2961 RMK A02 P0000
METAR K14M 231923Z AUTO 18023G30KT 29/09 A2961 RMK A02 P0000
METAR K14M 231924Z AUTO 18023G31KT 29/08 A2961 RMK A02 P0000
METAR K14M 231925Z AUTO 18020G30KT 29/08 A2961 RMK A02 P0000
METAR K14M 231926Z AUTO 21022G30KT 28/08 A2961 RMK A02 P0000
METAR K14M 231927Z AUTO 18022G30KT 28/08 A2961 RMK A02 P0000
METAR K14M 231928Z AUTO 21018G26KT 28/08 A2961 RMK A02 P0000
      
radar
Temperature (°F) 82.7 82.7
82.7
83.6
53.1
Humidity (%) 28 61
28
Dewpoint (°F) 46.3 54.4
37.1
Barometer (mb) 1002.6 1009.9
1002.6
Wind ( mph)
25 SSW
202°
38
14 avg
Precipitation 0.00 0.00
0.00
in/hr
in
Temperature
Inside °F
71.3 71.4
70.0
Humidity
Inside %
47 50
46
Sunrise 06:43 CST last quarter 41 %
Sunset 20:12 CST
Forecast     GR TSP